Time;durP1;ratioP1;P1;durP2;ratioP2;P2;SDS_P1;SDS_P2;PMS_P1;PMS_P2;Temp;Humidity;BMP_temperature;BMP_pressure;BME280_temperature;BME280_humidity;BME280_pressure;Samples;Min_cycle;Max_cycle;Signal;HPM_P1;HPM_P2
2023/08/29 00:02:31;;;;;;;14.10;12.60;;;;;;;-145.68;100.00;73659.69;10458634;28;20184;-67
2023/08/29 00:07:32;;;;;;;16.77;13.45;;;;;;;-145.68;100.00;73655.69;10458276;28;20606;-66
2023/08/29 00:12:32;;;;;;;14.35;10.95;;;;;;;-145.68;100.00;73647.72;10457638;28;20192;-67
2023/08/29 00:17:33;;;;;;;14.73;9.93;;;;;;;-145.68;100.00;73651.72;10457903;28;20211;-67
2023/08/29 00:22:33;;;;;;;7.90;7.10;;;;;;;-145.68;100.00;73641.72;10457314;28;20226;-66
2023/08/29 00:27:33;;;;;;;7.00;6.30;;;;;;;-145.68;100.00;73629.72;10456897;28;20261;-67
2023/08/29 00:32:34;;;;;;;6.30;5.80;;;;;;;-145.68;100.00;73621.72;10457211;28;20188;-68
2023/08/29 00:37:36;;;;;;;5.95;5.43;;;;;;;-145.68;100.00;73623.72;10439003;28;20698;-68
2023/08/29 00:42:37;;;;;;;6.95;6.35;;;;;;;-145.68;100.00;73609.72;10456676;28;20237;-67
2023/08/29 00:47:37;;;;;;;7.32;5.90;;;;;;;-145.68;100.00;73609.72;10456439;28;20227;-67
2023/08/29 00:52:38;;;;;;;7.32;6.60;;;;;;;-145.68;100.00;73601.72;10438539;28;20274;-67
2023/08/29 00:57:39;;;;;;;7.45;6.75;;;;;;;-145.68;100.00;73597.75;10438258;28;20590;-67
2023/08/29 01:02:39;;;;;;;11.23;6.68;;;;;;;-145.68;100.00;73597.75;10454632;28;20296;-68
2023/08/29 01:07:41;;;;;;;7.10;6.30;;;;;;;-145.68;100.00;73605.72;10456675;28;20266;-67
2023/08/29 01:12:47;;;;;;;11.15;7.95;;;;;;;-145.68;100.00;73611.72;10430345;28;20218;-67
2023/08/29 01:17:49;;;;;;;7.97;7.18;;;;;;;-145.68;100.00;73603.72;10437844;28;20738;-67
2023/08/29 01:23:08;;;;;;;11.00;9.27;;;;;;;-145.68;100.00;73583.75;10437484;28;20245;-68
2023/08/29 01:28:09;;;;;;;9.90;8.52;;;;;;;-145.68;100.00;73587.75;10458350;22;20247;-68
2023/08/29 01:33:10;;;;;;;11.85;9.50;;;;;;;-145.68;100.00;73591.75;10434779;28;20188;-68
2023/08/29 01:38:11;;;;;;;9.38;8.48;;;;;;;-145.68;100.00;73591.75;10420494;28;20229;-68
2023/08/29 01:43:12;;;;;;;11.57;9.05;;;;;;;-145.68;100.00;73577.75;10454407;28;20203;-67
2023/08/29 01:48:12;;;;;;;10.85;9.75;;;;;;;-145.68;100.00;73579.75;10436277;28;20583;-68
2023/08/29 01:53:13;;;;;;;13.57;12.20;;;;;;;-145.68;100.00;73579.75;10436231;28;20191;-68
2023/08/29 01:58:15;;;;;;;17.02;14.55;;;;;;;-145.68;100.00;73583.75;10453730;28;20329;-68
2023/08/29 02:03:15;;;;;;;19.42;16.30;;;;;;;-145.68;100.00;73571.75;10453786;28;20188;-68
2023/08/29 02:08:16;;;;;;;15.95;14.23;;;;;;;-145.68;100.00;73563.75;10435470;28;20223;-68
2023/08/29 02:13:16;;;;;;;15.15;13.55;;;;;;;-145.68;100.00;73543.78;10453956;28;20188;-68
2023/08/29 02:18:18;;;;;;;19.50;15.93;;;;;;;-145.68;100.00;73551.75;10453093;28;20211;-68
2023/08/29 02:23:18;;;;;;;15.88;14.18;;;;;;;-145.68;100.00;73543.78;10453044;28;20184;-68
2023/08/29 02:28:20;;;;;;;15.07;13.43;;;;;;;-145.68;100.00;73533.78;10434677;28;20239;-68
2023/08/29 02:33:21;;;;;;;14.05;12.73;;;;;;;-145.68;100.00;73545.78;10452720;28;20184;-68
2023/08/29 02:38:21;;;;;;;16.65;14.30;;;;;;;-145.68;100.00;73541.78;10453228;28;20226;-68
2023/08/29 02:43:23;;;;;;;15.63;13.98;;;;;;;-145.68;100.00;73537.78;10434690;28;20195;-68
2023/08/29 02:48:24;;;;;;;15.85;14.15;;;;;;;-145.68;100.00;73549.75;10434540;28;20216;-68
2023/08/29 02:53:24;;;;;;;14.23;12.73;;;;;;;-145.68;100.00;73569.75;10434655;28;20677;-69
2023/08/29 02:58:25;;;;;;;14.30;12.80;;;;;;;-145.68;100.00;73561.75;10434376;28;20215;-67
2023/08/29 03:03:26;;;;;;;12.38;10.88;;;;;;;-145.68;100.00;73539.78;10451942;28;20670;-67
2023/08/29 03:08:26;;;;;;;8.80;7.85;;;;;;;-145.68;100.00;73557.75;10433889;28;20224;-67
2023/08/29 03:13:27;;;;;;;9.75;8.75;;;;;;;-145.68;100.00;73545.78;10451606;28;20686;-68
2023/08/29 03:18:27;;;;;;;12.80;10.25;;;;;;;-145.68;100.00;73531.78;10433343;28;20204;-68
2023/08/29 03:23:28;;;;;;;9.25;7.75;;;;;;;-145.68;100.00;73555.75;10434660;28;20218;-67
2023/08/29 03:28:28;;;;;;;10.35;8.57;;;;;;;-145.68;100.00;73575.75;10441417;28;20297;-68
2023/08/29 03:33:28;;;;;;;9.35;8.38;;;;;;;-145.68;100.00;73589.75;10441824;28;20310;-68
2023/08/29 03:38:29;;;;;;;8.63;7.50;;;;;;;-145.68;100.00;73585.75;10459220;28;20215;-68
2023/08/29 03:43:32;;;;;;;9.60;8.30;;;;;;;-145.68;100.00;73587.75;10459132;28;20203;-68
2023/08/29 03:48:34;;;;;;;10.77;9.52;;;;;;;-145.68;100.00;73571.75;10459018;28;20216;-66
2023/08/29 03:53:37;;;;;;;10.00;8.55;;;;;;;-145.68;100.00;73559.75;10458709;28;20180;-67
2023/08/29 03:58:39;;;;;;;8.43;6.40;;;;;;;-145.68;100.00;73569.75;10440555;28;20200;-67
2023/08/29 04:03:41;;;;;;;8.35;5.72;;;;;;;-145.68;100.00;73563.75;10440546;28;20187;-67
2023/08/29 04:08:42;;;;;;;6.85;5.90;;;;;;;-145.68;100.00;73559.75;10458018;28;20235;-68
2023/08/29 04:13:42;;;;;;;7.03;6.32;;;;;;;-145.68;100.00;73575.75;10440115;28;20196;-67
2023/08/29 04:18:43;;;;;;;6.78;6.03;;;;;;;-145.68;100.00;73583.75;10457630;28;20295;-68
2023/08/29 04:23:44;;;;;;;8.02;7.22;;;;;;;-145.68;100.00;73591.75;10439485;28;20577;-66
2023/08/29 04:28:44;;;;;;;7.90;7.10;;;;;;;-145.68;100.00;73585.75;10439264;28;20228;-67
2023/08/29 04:33:45;;;;;;;7.88;7.03;;;;;;;-145.68;100.00;73591.75;10457143;28;20192;-67
2023/08/29 04:38:47;;;;;;;6.57;5.97;;;;;;;-145.68;100.00;73579.75;10437876;28;20199;-67
2023/08/29 04:43:47;;;;;;;8.68;6.53;;;;;;;-145.68;100.00;73585.75;10456786;28;20184;-67
2023/08/29 04:48:48;;;;;;;8.18;6.47;;;;;;;-145.68;100.00;73593.75;10454150;28;20219;-67
2023/08/29 04:53:48;;;;;;;10.70;7.68;;;;;;;-145.68;100.00;73591.75;10455017;28;20195;-67
2023/08/29 04:58:49;;;;;;;7.25;6.55;;;;;;;-145.68;100.00;73607.72;10453943;28;20211;-67
2023/08/29 05:03:49;;;;;;;6.03;5.47;;;;;;;-145.68;100.00;73603.72;10455372;28;20188;-68
2023/08/29 05:08:49;;;;;;;9.15;6.18;;;;;;;-145.68;100.00;73611.72;10455621;28;20216;-67
2023/08/29 05:13:50;;;;;;;6.55;5.65;;;;;;;-145.68;100.00;73605.72;10437942;28;20551;-68
2023/08/29 05:18:51;;;;;;;6.70;5.22;;;;;;;-145.68;100.00;73597.75;10437316;28;20207;-67
2023/08/29 05:23:51;;;;;;;9.43;5.10;;;;;;;-145.68;100.00;73601.72;10455290;28;20291;-68
2023/08/29 05:28:51;;;;;;;5.70;5.20;;;;;;;-145.68;100.00;73613.72;10454600;28;20232;-68
2023/08/29 05:33:52;;;;;;;8.57;6.45;;;;;;;-145.68;100.00;73615.72;10454896;28;20188;-68
2023/08/29 05:38:53;;;;;;;6.65;6.05;;;;;;;-145.68;100.00;73599.72;10454668;28;20216;-68
2023/08/29 05:43:53;;;;;;;6.90;6.13;;;;;;;-145.68;100.00;73595.75;10454247;28;20207;-68
2023/08/29 05:48:53;;;;;;;9.27;7.03;;;;;;;-145.68;100.00;73595.75;10454094;28;20618;-68
2023/08/29 05:53:54;;;;;;;9.13;6.15;;;;;;;-145.68;100.00;73583.75;10453963;28;20192;-67
2023/08/29 05:58:54;;;;;;;7.35;6.13;;;;;;;-145.68;100.00;73575.75;10453967;28;20215;-68
2023/08/29 06:03:54;;;;;;;6.63;5.95;;;;;;;-145.68;100.00;73569.75;10453472;28;20204;-68
2023/08/29 06:08:55;;;;;;;7.00;6.40;;;;;;;-145.68;100.00;73577.75;10453427;28;20215;-68
2023/08/29 06:13:55;;;;;;;7.32;5.53;;;;;;;-145.68;100.00;73585.75;10453445;28;20554;-68
2023/08/29 06:18:56;;;;;;;8.15;5.20;;;;;;;-145.68;100.00;73583.75;10452838;28;20639;-68
2023/08/29 06:23:56;;;;;;;7.43;4.55;;;;;;;-145.68;100.00;73585.75;10453118;28;20211;-68
2023/08/29 06:28:57;;;;;;;5.10;3.50;;;;;;;-145.68;100.00;73587.75;10452344;28;20235;-68
2023/08/29 06:33:57;;;;;;;4.72;4.20;;;;;;;-145.68;100.00;73579.75;10452817;28;20192;-68
2023/08/29 06:38:57;;;;;;;4.13;3.25;;;;;;;-145.68;100.00;73581.75;10452529;28;20579;-68
2023/08/29 06:43:58;;;;;;;2.60;2.40;;;;;;;-145.68;100.00;73585.75;10452273;28;20194;-68
2023/08/29 06:48:59;;;;;;;2.85;2.65;;;;;;;-145.68;100.00;73583.75;10452621;28;20265;-68
2023/08/29 06:54:00;;;;;;;3.53;3.22;;;;;;;-145.68;100.00;73563.75;10452174;28;20215;-67
2023/08/29 06:59:00;;;;;;;3.85;2.70;;;;;;;-145.68;100.00;73559.75;10454505;28;20227;-68
2023/08/29 07:04:00;;;;;;;3.25;3.05;;;;;;;-145.68;100.00;73567.75;10460644;28;20183;-68
2023/08/29 07:09:01;;;;;;;3.00;2.80;;;;;;;-145.68;100.00;73563.75;10460548;28;20207;-69
2023/08/29 07:14:01;;;;;;;3.70;3.03;;;;;;;-145.68;100.00;73559.75;10460302;28;20592;-69
2023/08/29 07:19:02;;;;;;;2.75;2.50;;;;;;;-145.68;100.00;73571.75;10459591;28;20323;-68
2023/08/29 07:24:04;;;;;;;2.85;2.53;;;;;;;-145.68;100.00;73559.75;10459787;28;20191;-69
2023/08/29 07:29:04;;;;;;;3.83;3.42;;;;;;;-145.68;100.00;73557.75;10479177;22;20258;-67
2023/08/29 07:34:05;;;;;;;2.95;2.70;;;;;;;-145.68;100.00;73535.78;10453637;28;20238;-67
2023/08/29 07:39:05;;;;;;;5.25;3.22;;;;;;;-145.68;100.00;73535.78;10455431;28;20207;-68
2023/08/29 07:44:06;;;;;;;7.20;3.05;;;;;;;-145.68;100.00;73527.78;10454406;28;20192;-67
2023/08/29 07:49:13;;;;;;;2.00;1.80;;;;;;;-145.68;100.00;73533.78;10455351;28;20227;-67
2023/08/29 07:54:13;;;;;;;3.13;2.50;;;;;;;-145.68;100.00;73509.78;10454772;28;20203;-68
2023/08/29 07:59:14;;;;;;;2.90;2.05;;;;;;;-145.68;100.00;73499.78;10454908;28;20207;-68
2023/08/29 08:04:14;;;;;;;3.22;2.40;;;;;;;-145.68;100.00;73479.81;10454800;28;20194;-66
2023/08/29 08:09:15;;;;;;;2.45;2.25;;;;;;;-145.68;100.00;73471.81;10454227;28;20261;-67
2023/08/29 08:14:17;;;;;;;2.60;2.40;;;;;;;-145.68;100.00;73511.78;10453102;28;20227;-68
2023/08/29 08:19:17;;;;;;;1.95;1.85;;;;;;;-145.68;100.00;73505.78;10454025;28;20314;-69
2023/08/29 08:24:17;;;;;;;2.40;2.20;;;;;;;-145.68;100.00;73489.81;10452788;28;20269;-68
2023/08/29 08:29:18;;;;;;;2.20;2.00;;;;;;;-145.68;100.00;73455.81;10453507;28;20239;-67
2023/08/29 08:34:18;;;;;;;3.38;2.85;;;;;;;-145.68;100.00;73461.81;10435554;28;20183;-68
2023/08/29 08:39:21;;;;;;;2.53;2.33;;;;;;;-145.68;100.00;73459.81;10451227;28;20212;-67
2023/08/29 08:44:23;;;;;;;3.28;2.50;;;;;;;-145.68;100.00;73457.81;10455352;28;20227;-66
2023/08/29 08:49:24;;;;;;;3.38;3.08;;;;;;;-145.68;100.00;73443.84;10454038;28;20224;-67
2023/08/29 08:54:27;;;;;;;3.00;2.80;;;;;;;-145.68;100.00;73437.84;10436915;28;20658;-67
2023/08/29 08:59:27;;;;;;;3.25;3.05;;;;;;;-145.68;100.00;73421.84;10454989;28;20232;-68
2023/08/29 09:04:28;;;;;;;3.70;3.40;;;;;;;-145.68;100.00;73423.84;10454285;28;20222;-67
2023/08/29 09:09:28;;;;;;;3.78;2.85;;;;;;;-145.68;100.00;73435.84;10453179;28;20724;-68
2023/08/29 09:14:30;;;;;;;3.08;2.78;;;;;;;-145.68;100.00;73401.84;10454204;28;20330;-68
2023/08/29 09:19:34;;;;;;;3.25;3.03;;;;;;;-145.68;100.00;73403.84;10452654;28;20714;-67
2023/08/29 09:24:35;;;;;;;3.90;3.60;;;;;;;-145.68;100.00;73389.88;10436029;28;20223;-67
2023/08/29 09:29:36;;;;;;;4.22;3.83;;;;;;;-145.68;100.00;73393.84;10453061;28;20254;-67
2023/08/29 09:34:36;;;;;;;3.78;2.47;;;;;;;-145.68;100.00;73385.88;10453528;28;20180;-68
2023/08/29 09:39:37;;;;;;;2.63;2.42;;;;;;;-145.68;100.00;73395.84;10435310;28;20216;-69
2023/08/29 09:44:39;;;;;;;3.55;2.80;;;;;;;-145.68;100.00;73391.84;10451195;28;20589;-67
2023/08/29 09:49:43;;;;;;;3.55;3.25;;;;;;;-145.68;100.00;73389.88;10451478;28;20897;-67
2023/08/29 09:54:47;;;;;;;4.07;3.65;;;;;;;-145.68;100.00;73391.84;10452276;28;20662;-68
2023/08/29 09:59:48;;;;;;;4.15;3.72;;;;;;;-145.68;100.00;73377.88;10452373;28;20227;-67
2023/08/29 10:05:04;;;;;;;3.22;2.92;;;;;;;-145.68;100.00;73383.88;10452277;28;20219;-67
2023/08/29 10:10:06;;;;;;;3.42;2.65;;;;;;;-145.68;100.00;73377.88;10452043;28;20222;-67
2023/08/29 10:15:08;;;;;;;2.90;2.47;;;;;;;-145.68;100.00;73379.88;10451264;28;20183;-67
2023/08/29 10:20:12;;;;;;;3.42;2.47;;;;;;;-145.68;100.00;73365.88;10430512;28;20561;-67
2023/08/29 10:25:13;;;;;;;3.30;2.70;;;;;;;-145.68;100.00;73353.88;10450466;28;20224;-67
2023/08/29 10:30:14;;;;;;;2.38;2.17;;;;;;;-145.68;100.00;73359.88;10451115;28;20262;-67
2023/08/29 10:35:19;;;;;;;1.50;1.40;;;;;;;-145.68;100.00;73385.88;10451124;28;20267;-67
2023/08/29 10:40:20;;;;;;;5.53;1.77;;;;;;;-145.68;100.00;73387.88;10451087;28;20216;-68
2023/08/29 10:45:22;;;;;;;1.63;1.50;;;;;;;-145.68;100.00;73385.88;10445244;28;20222;-68
2023/08/29 10:50:22;;;;;;;1.83;1.73;;;;;;;-145.68;100.00;73367.88;10450875;28;20258;-68
2023/08/29 10:55:23;;;;;;;2.10;1.90;;;;;;;-145.68;100.00;73355.88;10449450;28;20562;-68
2023/08/29 11:00:39;;;;;;;3.15;1.60;;;;;;;-145.68;100.00;73363.88;10450754;28;20226;-69
2023/08/29 11:05:39;;;;;;;2.10;1.90;;;;;;;-145.68;100.00;73327.91;10449541;28;20223;-68
2023/08/29 11:10:40;;;;;;;1.95;1.75;;;;;;;-145.68;100.00;73315.91;10450334;28;20212;-69
2023/08/29 11:15:49;;;;;;;1.40;1.30;;;;;;;-145.68;100.00;73279.94;10440542;28;20188;-69
2023/08/29 11:20:51;;;;;;;1.38;1.27;;;;;;;-145.68;100.00;73255.94;10425460;28;20268;-68
2023/08/29 11:25:51;;;;;;;1.58;1.42;;;;;;;-145.68;100.00;73263.94;10430172;28;20701;-69
2023/08/29 11:30:53;;;;;;;1.13;1.10;;;;;;;-145.68;100.00;73235.97;10428688;28;20294;-68
2023/08/29 11:35:54;;;;;;;1.75;0.70;;;;;;;-145.68;100.00;73259.94;10433287;28;20184;-68
2023/08/29 11:40:55;;;;;;;1.20;1.10;;;;;;;-145.68;100.00;73227.97;10447228;28;20212;-68
2023/08/29 11:45:59;;;;;;;1.05;1.00;;;;;;;-145.68;100.00;73227.97;10434910;28;20269;-68
2023/08/29 11:51:04;;;;;;;2.17;0.90;;;;;;;-145.68;100.00;73231.97;10457094;28;20706;-68
2023/08/29 11:56:08;;;;;;;0.75;0.75;;;;;;;-145.68;100.00;73291.94;10457130;28;20214;-67
2023/08/29 12:01:08;;;;;;;0.80;0.80;;;;;;;-145.68;100.00;73269.94;10437137;28;20251;-68
2023/08/29 12:06:10;;;;;;;0.85;0.85;;;;;;;-145.68;100.00;73273.94;10455763;28;20274;-69
2023/08/29 12:11:15;;;;;;;1.13;0.90;;;;;;;-145.68;100.00;73271.94;10454452;28;20243;-67
2023/08/29 12:16:16;;;;;;;0.90;0.90;;;;;;;-145.68;100.00;73287.94;10456028;28;20249;-67
2023/08/29 12:21:18;;;;;;;1.20;1.10;;;;;;;-145.68;100.00;73317.91;10454514;28;20303;-68
2023/08/29 12:26:19;;;;;;;1.77;1.10;;;;;;;-145.68;100.00;73319.91;10444720;28;20840;-68
2023/08/29 12:31:19;;;;;;;1.17;1.17;;;;;;;-145.68;100.00;73323.91;10449563;28;20265;-69
2023/08/29 12:36:19;;;;;;;1.42;1.23;;;;;;;-145.68;100.00;73317.91;10455887;28;20535;-69
2023/08/29 12:41:21;;;;;;;1.58;1.40;;;;;;;-145.68;100.00;73315.91;10454247;28;20216;-68
2023/08/29 12:46:21;;;;;;;6.78;1.50;;;;;;;-145.68;100.00;73315.91;10453474;28;20763;-68
2023/08/29 12:51:22;;;;;;;2.15;1.75;;;;;;;-145.68;100.00;73305.91;10453115;28;20269;-68
2023/08/29 12:56:22;;;;;;;1.45;1.35;;;;;;;-145.68;100.00;73307.91;10453128;28;20184;-68
2023/08/29 13:01:27;;;;;;;1.70;1.60;;;;;;;-145.68;100.00;73269.94;10454252;28;20824;-69
2023/08/29 13:06:27;;;;;;;2.00;1.70;;;;;;;-145.68;100.00;73253.94;10453190;28;20214;-68
2023/08/29 13:11:29;;;;;;;2.95;1.77;;;;;;;-145.68;100.00;73235.97;10454172;28;20228;-68
2023/08/29 13:16:33;;;;;;;2.10;1.42;;;;;;;-145.68;100.00;73247.97;10452049;28;20211;-68
2023/08/29 13:21:34;;;;;;;2.53;1.40;;;;;;;-145.68;100.00;73235.97;10452065;28;20240;-69
2023/08/29 13:26:34;;;;;;;1.92;1.52;;;;;;;-145.68;100.00;73223.97;10452730;28;20232;-69
2023/08/29 13:31:34;;;;;;;2.42;1.70;;;;;;;-145.68;100.00;73221.97;10469274;23;20248;-68
2023/08/29 13:36:35;;;;;;;1.80;1.52;;;;;;;-145.68;100.00;73200.00;10451178;28;20192;-68
2023/08/29 13:41:36;;;;;;;1.77;1.67;;;;;;;-145.68;100.00;73196.00;10453303;28;20270;-68
2023/08/29 13:46:36;;;;;;;1.80;1.65;;;;;;;-145.68;100.00;73168.00;10412538;28;20226;-68
2023/08/29 13:51:37;;;;;;;2.92;1.60;;;;;;;-145.68;100.00;73144.03;10411609;28;20246;-68
2023/08/29 13:56:37;;;;;;;1.30;1.20;;;;;;;-145.68;100.00;73106.06;10411171;28;20177;-68
2023/08/29 14:01:38;;;;;;;1.90;1.30;;;;;;;-145.68;100.00;73104.06;10439606;28;20211;-68
2023/08/29 14:06:38;;;;;;;1.88;1.17;;;;;;;-145.68;100.00;73118.03;10491906;28;20219;-68
2023/08/29 14:11:39;;;;;;;1.27;1.17;;;;;;;-145.68;100.00;73136.03;10493349;28;20353;-68
2023/08/29 14:16:39;;;;;;;1.77;1.50;;;;;;;-145.68;100.00;73136.03;10449594;28;20188;-68
2023/08/29 14:21:39;;;;;;;2.53;1.42;;;;;;;-145.68;100.00;73130.03;10437835;28;20585;-68
2023/08/29 14:26:40;;;;;;;1.58;1.48;;;;;;;-145.68;100.00;73114.03;10428234;28;20223;-67
2023/08/29 14:31:40;;;;;;;1.35;1.25;;;;;;;-145.68;100.00;73064.09;10415423;28;20240;-68
2023/08/29 14:36:40;;;;;;;1.08;1.08;;;;;;;-145.68;100.00;73022.13;10410562;28;20212;-67
2023/08/29 14:41:42;;;;;;;0.82;0.70;;;;;;;-145.68;100.00;73028.09;10442707;28;20216;-68
2023/08/29 14:46:42;;;;;;;1.83;1.00;;;;;;;-145.68;100.00;73088.06;10450963;28;20592;-68
2023/08/29 14:51:42;;;;;;;2.60;1.23;;;;;;;-145.68;100.00;73108.06;10450727;28;20208;-68
2023/08/29 14:56:43;;;;;;;1.38;1.27;;;;;;;-145.68;100.00;73136.03;10450875;28;20184;-68
2023/08/29 15:01:44;;;;;;;1.60;1.50;;;;;;;-145.68;100.00;73162.00;10450624;28;20702;-68
2023/08/29 15:06:44;;;;;;;1.55;1.45;;;;;;;-145.68;100.00;73152.03;10449512;28;20252;-68
2023/08/29 15:11:45;;;;;;;1.33;1.20;;;;;;;-145.68;100.00;73146.03;10449517;28;20266;-68
2023/08/29 15:16:46;;;;;;;1.95;1.70;;;;;;;-145.68;100.00;73160.00;10450353;28;20190;-68
2023/08/29 15:21:47;;;;;;;4.00;2.30;;;;;;;-145.68;100.00;73112.03;10455627;28;20229;-68
2023/08/29 15:26:47;;;;;;;4.97;4.50;;;;;;;-145.68;100.00;73120.03;10458366;28;20219;-68
2023/08/29 15:31:48;;;;;;;5.47;2.78;;;;;;;-145.68;100.00;73134.03;10458222;28;20719;-68
2023/08/29 15:36:48;;;;;;;1.85;1.75;;;;;;;-145.68;100.00;73146.03;10457916;28;20194;-68
2023/08/29 15:41:49;;;;;;;3.42;3.08;;;;;;;-145.68;100.00;73164.00;10446307;28;20219;-68
2023/08/29 15:46:49;;;;;;;5.65;4.63;;;;;;;-145.68;100.00;73176.00;10457613;28;20227;-68
2023/08/29 15:51:50;;;;;;;16.83;10.20;;;;;;;-145.68;100.00;73200.00;10457147;28;20216;-68
2023/08/29 15:56:51;;;;;;;61.28;36.97;;;;;;;-145.68;100.00;73217.97;10457565;28;20249;-68
2023/08/29 16:01:51;;;;;;;11.40;6.90;;;;;;;-145.68;100.00;73227.97;10456894;28;20212;-68
2023/08/29 16:06:52;;;;;;;5.13;4.50;;;;;;;-145.68;100.00;73269.94;10455693;28;20705;-68
2023/08/29 16:11:52;;;;;;;3.78;3.30;;;;;;;-145.68;100.00;73295.94;10458118;28;20215;-67
2023/08/29 16:16:53;;;;;;;6.18;3.92;;;;;;;-145.68;100.00;73305.91;10458101;28;20191;-67
2023/08/29 16:21:53;;;;;;;4.90;4.50;;;;;;;-145.68;100.00;73317.91;10457860;28;20269;-67
2023/08/29 16:26:53;;;;;;;12.38;11.10;;;;;;;-145.68;100.00;73327.91;10458157;28;20242;-68
2023/08/29 16:31:54;;;;;;;8.02;6.10;;;;;;;-145.68;100.00;73333.91;10457112;28;20710;-68
2023/08/29 16:36:54;;;;;;;11.88;9.93;;;;;;;-145.68;100.00;73339.91;10457244;28;20191;-68
2023/08/29 16:41:55;;;;;;;9.50;7.93;;;;;;;-145.68;100.00;73345.88;10457183;28;20279;-69
2023/08/29 16:46:55;;;;;;;8.77;7.88;;;;;;;-145.68;100.00;73345.88;10456529;28;20278;-69
2023/08/29 16:51:55;;;;;;;7.93;6.25;;;;;;;-145.68;100.00;73347.88;10455800;28;20212;-69
2023/08/29 16:56:56;;;;;;;11.82;10.60;;;;;;;-145.68;100.00;73355.88;10456128;28;21075;-69
2023/08/29 17:01:56;;;;;;;11.48;10.10;;;;;;;-145.68;100.00;73343.88;10455605;28;20216;-69
2023/08/29 17:06:57;;;;;;;16.20;12.55;;;;;;;-145.68;100.00;73355.88;10455621;28;20274;-69
2023/08/29 17:11:57;;;;;;;13.43;12.02;;;;;;;-145.68;100.00;73343.88;10455218;28;20219;-69
2023/08/29 17:16:58;;;;;;;6.20;5.60;;;;;;;-145.68;100.00;73341.91;10455362;28;20246;-69
2023/08/29 17:21:59;;;;;;;7.72;6.97;;;;;;;-145.68;100.00;73347.88;10454747;28;20207;-69
2023/08/29 17:27:00;;;;;;;9.48;6.78;;;;;;;-145.68;100.00;73339.91;10454727;28;20273;-69
2023/08/29 17:32:00;;;;;;;15.50;7.28;;;;;;;-145.68;100.00;73353.88;10454435;28;20278;-69
2023/08/29 17:37:01;;;;;;;5.30;4.80;;;;;;;-145.68;100.00;73347.88;10445035;28;20324;-68
2023/08/29 17:42:01;;;;;;;6.60;5.95;;;;;;;-145.68;100.00;73351.88;10437420;28;20223;-68
2023/08/29 17:47:03;;;;;;;8.55;6.20;;;;;;;-145.68;100.00;73355.88;10424331;28;20650;-68
2023/08/29 17:52:03;;;;;;;5.95;5.45;;;;;;;-145.68;100.00;73359.88;10445380;28;20216;-68
2023/08/29 17:57:03;;;;;;;6.85;5.55;;;;;;;-145.68;100.00;73361.88;10420409;28;20278;-68
2023/08/29 18:02:04;;;;;;;9.75;5.70;;;;;;;-145.68;100.00;73365.88;10453092;28;20257;-68
2023/08/29 18:07:06;;;;;;;6.60;6.00;;;;;;;-145.68;100.00;73365.88;10452800;28;20273;-68
2023/08/29 18:12:07;;;;;;;7.55;5.60;;;;;;;-145.68;100.00;73373.88;10452567;28;20606;-68
2023/08/29 18:17:07;;;;;;;11.18;5.30;;;;;;;-145.68;100.00;73377.88;10453316;28;20194;-68
2023/08/29 18:22:08;;;;;;;7.18;4.82;;;;;;;-145.68;100.00;73367.88;10452536;28;20617;-67
2023/08/29 18:27:09;;;;;;;7.05;4.72;;;;;;;-145.68;100.00;73367.88;10452205;28;20215;-67
2023/08/29 18:32:09;;;;;;;8.18;5.30;;;;;;;-145.68;100.00;73375.88;10451927;28;20227;-68
2023/08/29 18:37:09;;;;;;;8.20;4.68;;;;;;;-145.68;100.00;73387.88;10452460;28;20219;-69
2023/08/29 18:42:10;;;;;;;5.07;4.30;;;;;;;-145.68;100.00;73401.84;10451977;28;20578;-68
2023/08/29 18:47:10;;;;;;;5.68;3.83;;;;;;;-145.68;100.00;73421.84;10451940;28;20222;-67
2023/08/29 18:52:11;;;;;;;4.65;3.50;;;;;;;-145.68;100.00;73417.84;10452044;28;20269;-68
2023/08/29 18:57:11;;;;;;;3.38;3.03;;;;;;;-145.68;100.00;73415.84;10450790;28;20198;-68
2023/08/29 19:02:11;;;;;;;6.25;3.53;;;;;;;-145.68;100.00;73425.84;10452234;28;20230;-68
2023/08/29 19:07:12;;;;;;;6.60;3.88;;;;;;;-145.68;100.00;73433.84;10451641;28;20273;-68
2023/08/29 19:12:13;;;;;;;6.30;4.50;;;;;;;-145.68;100.00;73435.84;10451796;28;20204;-68
2023/08/29 19:17:13;;;;;;;6.53;5.28;;;;;;;-145.68;100.00;73427.84;10452079;28;20569;-69
2023/08/29 19:22:14;;;;;;;6.43;4.80;;;;;;;-145.68;100.00;73423.84;10477411;28;20607;-69
2023/08/29 19:27:17;;;;;;;7.10;4.47;;;;;;;-145.68;100.00;73419.84;10492868;28;20281;-69
2023/08/29 19:32:17;;;;;;;4.80;4.25;;;;;;;-145.68;100.00;73413.84;10459776;22;20275;-66
2023/08/29 19:37:18;;;;;;;4.50;4.10;;;;;;;-145.68;100.00;73417.84;10403386;28;20628;-66
2023/08/29 19:42:18;;;;;;;5.55;3.95;;;;;;;-145.68;100.00;73423.84;10409708;28;20695;-66
2023/08/29 19:47:23;;;;;;;3.42;3.13;;;;;;;-145.68;100.00;73423.84;10390653;28;20307;-67
2023/08/29 19:52:23;;;;;;;3.75;2.20;;;;;;;-145.68;100.00;73413.84;10368509;28;20217;-67
2023/08/29 19:57:23;;;;;;;2.75;2.55;;;;;;;-145.68;100.00;73419.84;10368607;28;20182;-66
2023/08/29 20:02:24;;;;;;;5.70;2.63;;;;;;;-145.68;100.00;73417.84;10368745;28;20213;-66
2023/08/29 20:07:24;;;;;;;2.92;2.28;;;;;;;-145.68;100.00;73431.84;10372161;28;20225;-66
2023/08/29 20:12:24;;;;;;;2.33;2.13;;;;;;;-145.68;100.00;73445.81;10392526;28;20245;-66
2023/08/29 20:17:25;;;;;;;2.03;1.92;;;;;;;-145.68;100.00;73443.84;10396375;28;20193;-66
2023/08/29 20:22:25;;;;;;;2.78;2.55;;;;;;;-145.68;100.00;73449.81;10375498;28;20220;-66
2023/08/29 20:27:26;;;;;;;5.07;3.55;;;;;;;-145.68;100.00;73455.81;10375722;28;20656;-66
2023/08/29 20:32:27;;;;;;;3.63;3.33;;;;;;;-145.68;100.00;73473.81;10374880;28;20244;-66
2023/08/29 20:37:28;;;;;;;4.97;4.47;;;;;;;-145.68;100.00;73483.81;10375269;28;20197;-66
2023/08/29 20:42:28;;;;;;;6.00;5.53;;;;;;;-145.68;100.00;73507.78;10374711;28;20205;-66
2023/08/29 20:47:29;;;;;;;6.47;5.88;;;;;;;-145.68;100.00;73515.78;10374653;28;20586;-66
2023/08/29 20:52:29;;;;;;;7.22;6.53;;;;;;;-145.68;100.00;73519.78;10374553;28;20217;-66
2023/08/29 20:57:31;;;;;;;7.00;6.18;;;;;;;-145.68;100.00;73527.78;10374170;28;20193;-66
2023/08/29 21:02:31;;;;;;;6.10;4.78;;;;;;;-145.68;100.00;73525.78;10374139;28;20220;-67
2023/08/29 21:07:32;;;;;;;3.88;3.58;;;;;;;-145.68;100.00;73535.78;10373474;28;20611;-68
2023/08/29 21:12:32;;;;;;;2.65;2.45;;;;;;;-145.68;100.00;73537.78;10373948;28;20209;-67
2023/08/29 21:17:33;;;;;;;2.38;2.17;;;;;;;-145.68;100.00;73537.78;10372603;28;20193;-67
2023/08/29 21:22:33;;;;;;;2.42;2.22;;;;;;;-145.68;100.00;73537.78;10373282;28;20225;-68
2023/08/29 21:27:34;;;;;;;2.63;2.30;;;;;;;-145.68;100.00;73539.78;10373224;28;20232;-67
2023/08/29 21:32:34;;;;;;;3.20;2.45;;;;;;;-145.68;100.00;73549.75;10372688;28;20390;-68
2023/08/29 21:37:35;;;;;;;5.13;3.20;;;;;;;-145.68;100.00;73545.78;10373067;28;20808;-67
2023/08/29 21:42:37;;;;;;;4.82;3.25;;;;;;;-145.68;100.00;73541.78;10372544;28;20208;-67
2023/08/29 21:47:37;;;;;;;4.82;3.17;;;;;;;-145.68;100.00;73555.75;10372427;28;20291;-67
2023/08/29 21:52:38;;;;;;;3.33;3.03;;;;;;;-145.68;100.00;73559.75;10372136;28;20213;-67
2023/08/29 21:57:38;;;;;;;3.58;2.67;;;;;;;-145.68;100.00;73557.75;10371977;28;20197;-68
2023/08/29 22:02:38;;;;;;;5.32;2.50;;;;;;;-145.68;100.00;73557.75;10371755;28;20217;-67
2023/08/29 22:07:40;;;;;;;4.63;2.67;;;;;;;-145.68;100.00;73559.75;10371547;28;20229;-68
2023/08/29 22:12:41;;;;;;;7.70;2.85;;;;;;;-145.68;100.00;73557.75;10371477;28;20711;-68
2023/08/29 22:17:43;;;;;;;3.40;3.10;;;;;;;-145.68;100.00;73551.75;10371412;28;20181;-67
2023/08/29 22:22:43;;;;;;;4.90;2.83;;;;;;;-145.68;100.00;73557.75;10371128;28;20212;-68
2023/08/29 22:27:43;;;;;;;9.85;3.67;;;;;;;-145.68;100.00;73561.75;10370847;28;20600;-67